Time;durP1;ratioP1;P1;durP2;ratioP2;P2;SDS_P1;SDS_P2;PMS_P1;PMS_P2;Temp;Humidity;BMP_temperature;BMP_pressure;BME280_temperature;BME280_humidity;BME280_pressure;Samples;Min_cycle;Max_cycle;Signal;HPM_P1;HPM_P2
2022/04/30 00:00:57;;;;;;;14.07;9.68;;;;;;;11.33;72.24;100894.84;5116652;28;20472;-76
2022/04/30 00:03:28;;;;;;;16.57;10.00;;;;;;;11.55;71.43;100899.03;5116505;28;20040;-76
2022/04/30 00:05:56;;;;;;;15.68;9.68;;;;;;;11.68;69.50;100897.47;5116524;28;20284;-75
2022/04/30 00:08:25;;;;;;;15.93;9.93;;;;;;;11.53;72.06;100887.59;5097620;28;20065;-76
2022/04/30 00:10:53;;;;;;;17.08;9.73;;;;;;;11.55;72.03;100891.03;5098127;28;20495;-76
2022/04/30 00:13:26;;;;;;;14.20;9.57;;;;;;;11.52;71.72;100888.53;5116265;28;20047;-76
2022/04/30 00:15:54;;;;;;;15.90;10.10;;;;;;;11.47;72.86;100889.63;5097799;28;20082;-75
2022/04/30 00:18:25;;;;;;;15.65;9.98;;;;;;;11.26;73.67;100887.25;5116024;28;20054;-76
2022/04/30 00:20:53;;;;;;;16.00;9.63;;;;;;;11.20;74.57;100884.91;5116426;28;20118;-75
2022/04/30 00:23:21;;;;;;;17.63;9.88;;;;;;;11.23;74.47;100890.94;5097759;28;20048;-76
2022/04/30 00:25:51;;;;;;;16.85;9.20;;;;;;;11.28;73.28;100896.91;5116133;28;20043;-76
2022/04/30 00:28:20;;;;;;;16.80;10.07;;;;;;;11.23;74.02;100895.44;5115565;28;20548;-76
2022/04/30 00:30:50;;;;;;;15.60;9.13;;;;;;;11.27;73.15;100891.63;5098040;28;20073;-75
2022/04/30 00:33:20;;;;;;;16.48;9.57;;;;;;;11.10;74.38;100888.06;5115952;28;20071;-76
2022/04/30 00:35:48;;;;;;;13.98;8.95;;;;;;;10.97;74.50;100888.78;5115966;28;20035;-75
2022/04/30 00:38:17;;;;;;;14.48;9.25;;;;;;;11.00;74.27;100896.59;5097325;28;20511;-79
2022/04/30 00:40:45;;;;;;;13.93;9.07;;;;;;;11.09;74.00;100888.13;5116025;28;20043;-76
2022/04/30 00:43:13;;;;;;;14.98;9.20;;;;;;;11.22;73.31;100894.56;5096645;28;20054;-75
2022/04/30 00:45:47;;;;;;;15.52;9.38;;;;;;;11.14;74.38;100896.78;5115657;28;20044;-75
2022/04/30 00:48:17;;;;;;;15.65;8.75;;;;;;;11.06;74.88;100894.50;5097545;28;20086;-76
2022/04/30 00:50:45;;;;;;;15.52;8.70;;;;;;;11.08;74.37;100903.28;5097172;28;20100;-76
2022/04/30 00:53:17;;;;;;;15.35;8.52;;;;;;;11.01;75.01;100901.03;5115731;28;20053;-75
2022/04/30 00:55:48;;;;;;;14.15;8.35;;;;;;;10.89;76.26;100897.16;5097461;28;20047;-76
2022/04/30 00:58:21;;;;;;;15.82;9.18;;;;;;;10.82;76.23;100896.63;5097315;28;20097;-76
2022/04/30 01:00:50;;;;;;;16.67;9.45;;;;;;;10.85;75.92;100906.28;5115837;28;20400;-76
2022/04/30 01:03:20;;;;;;;13.98;8.15;;;;;;;10.73;75.22;100899.78;5114898;28;20051;-82
2022/04/30 01:05:49;;;;;;;13.70;8.68;;;;;;;10.64;76.55;100896.69;5097142;28;20097;-76
2022/04/30 01:08:18;;;;;;;13.07;7.93;;;;;;;10.67;75.99;100897.41;5096745;28;20070;-75
2022/04/30 01:10:46;;;;;;;13.80;8.65;;;;;;;10.64;76.51;100900.22;5114964;28;20381;-75
2022/04/30 01:13:15;;;;;;;11.32;7.45;;;;;;;10.82;74.37;100901.13;5097001;28;20043;-76
2022/04/30 01:15:43;;;;;;;15.75;7.95;;;;;;;10.80;74.55;100893.16;5114607;28;20052;-75
2022/04/30 01:18:12;;;;;;;14.77;8.35;;;;;;;10.69;75.45;100890.19;5096907;28;20127;-75
2022/04/30 01:20:51;;;;;;;15.13;8.43;;;;;;;10.59;76.57;100888.91;5114862;28;20044;-75
2022/04/30 01:23:22;;;;;;;13.60;8.65;;;;;;;10.55;77.42;100884.69;5096777;28;20058;-75
2022/04/30 01:25:54;;;;;;;15.45;8.52;;;;;;;10.41;78.21;100892.50;5115057;28;20545;-75
2022/04/30 01:28:25;;;;;;;11.73;7.88;;;;;;;10.50;77.51;100882.22;5114738;28;20488;-77
2022/04/30 01:30:53;;;;;;;14.07;8.60;;;;;;;10.52;76.61;100888.38;5115090;28;20123;-76
2022/04/30 01:39:00;;;;;;;14.45;8.98;;;;;;;10.37;78.23;100885.59;5116598;28;20043;-75
2022/04/30 01:41:28;;;;;;;16.40;8.65;;;;;;;10.20;79.54;100883.72;5097734;28;20066;-76
2022/04/30 01:43:56;;;;;;;12.25;8.32;;;;;;;10.03;80.96;100876.50;5116020;28;20051;-76
2022/04/30 01:46:24;;;;;;;13.05;8.35;;;;;;;10.07;80.88;100871.94;5115928;28;20048;-76
2022/04/30 01:48:53;;;;;;;12.48;7.90;;;;;;;10.16;80.30;100869.69;5116958;28;20031;-75
2022/04/30 01:51:21;;;;;;;10.80;8.05;;;;;;;10.20;80.06;100873.91;5116066;28;20040;-76
2022/04/30 01:53:50;;;;;;;13.23;8.73;;;;;;;9.83;82.79;100868.59;5115811;28;20065;-76
2022/04/30 01:56:19;;;;;;;13.50;8.18;;;;;;;9.85;83.70;100869.44;5115048;28;20043;-75
2022/04/30 01:58:48;;;;;;;14.75;8.45;;;;;;;9.79;83.80;100867.91;5115664;28;20071;-75
2022/04/30 02:01:16;;;;;;;11.65;7.90;;;;;;;9.85;82.93;100866.75;5114444;28;20043;-75
2022/04/30 02:03:45;;;;;;;12.98;8.48;;;;;;;9.53;87.76;100866.44;5095797;28;20052;-77
2022/04/30 02:06:13;;;;;;;13.77;8.27;;;;;;;9.56;87.60;100866.31;5114254;28;20122;-75
2022/04/30 02:08:41;;;;;;;12.25;8.00;;;;;;;9.57;87.00;100860.06;5113663;28;20051;-74
2022/04/30 02:11:11;;;;;;;11.18;7.90;;;;;;;9.51;88.03;100859.47;5114212;28;20160;-74
2022/04/30 02:13:41;;;;;;;13.82;8.27;;;;;;;9.49;89.02;100851.56;5113944;28;20044;-75
2022/04/30 02:16:10;;;;;;;14.32;8.07;;;;;;;9.44;89.81;100857.06;5114332;28;20068;-75
2022/04/30 02:18:39;;;;;;;13.60;8.63;;;;;;;9.39;91.50;100850.25;5113406;28;20050;-75
2022/04/30 02:21:10;;;;;;;11.43;8.07;;;;;;;9.46;90.69;100857.91;5114057;28;20106;-75
2022/04/30 02:23:39;;;;;;;13.15;8.35;;;;;;;9.34;91.35;100850.44;5113768;28;20074;-76
2022/04/30 02:26:09;;;;;;;13.23;8.63;;;;;;;9.32;92.80;100854.13;5113545;28;20051;-77
2022/04/30 02:28:37;;;;;;;11.30;8.38;;;;;;;9.29;94.83;100854.25;5113368;28;20047;-77
2022/04/30 02:31:07;;;;;;;13.35;8.85;;;;;;;9.17;96.29;100853.88;5114020;28;20040;-75
2022/04/30 02:33:35;;;;;;;13.63;8.07;;;;;;;9.17;96.69;100851.22;5113793;28;20457;-75
2022/04/30 02:36:04;;;;;;;10.07;7.63;;;;;;;9.10;99.13;100849.75;5113814;28;20043;-75
2022/04/30 02:38:36;;;;;;;12.02;8.32;;;;;;;9.08;98.16;100850.78;5113696;28;20549;-76
2022/04/30 02:41:05;;;;;;;10.93;8.02;;;;;;;8.86;100.00;100856.16;5108719;28;20047;-76
2022/04/30 02:43:33;;;;;;;11.02;8.07;;;;;;;8.81;100.00;100852.84;5075052;28;20052;-76
2022/04/30 02:46:01;;;;;;;11.63;8.18;;;;;;;8.80;100.00;100843.13;5078450;28;20040;-76
2022/04/30 02:48:31;;;;;;;11.40;6.53;;;;;;;8.93;97.02;100841.66;5093111;28;20123;-76
2022/04/30 02:51:00;;;;;;;10.10;6.85;;;;;;;9.10;94.26;100832.94;5093278;28;20036;-75
2022/04/30 02:53:28;;;;;;;11.25;6.82;;;;;;;9.25;90.44;100839.34;5091627;28;20048;-76
2022/04/30 02:55:57;;;;;;;11.65;6.82;;;;;;;9.21;89.99;100835.13;5093348;28;20040;-76
2022/04/30 03:01:11;;;;;;;10.02;7.28;;;;;;;9.02;92.48;100830.59;5093347;28;20047;-76
2022/04/30 03:03:41;;;;;;;12.98;7.72;;;;;;;9.02;93.22;100827.94;5093054;28;20040;-76
2022/04/30 03:06:10;;;;;;;11.73;6.90;;;;;;;9.03;92.13;100832.34;5075345;28;20509;-75
2022/04/30 03:08:39;;;;;;;13.30;7.20;;;;;;;8.97;93.28;100832.59;5096745;28;20143;-76
2022/04/30 03:11:09;;;;;;;12.90;7.13;;;;;;;8.98;92.70;100833.50;5096846;28;20052;-76
2022/04/30 03:13:37;;;;;;;12.45;7.35;;;;;;;8.93;93.68;100833.69;5096978;28;20051;-76
2022/04/30 03:21:48;;;;;;;11.20;7.40;;;;;;;8.77;95.59;100840.59;5078740;28;20126;-76
2022/04/30 03:24:18;;;;;;;10.65;7.35;;;;;;;8.82;95.12;100836.81;5097129;28;20044;-76
2022/04/30 03:26:47;;;;;;;11.88;7.30;;;;;;;8.88;94.18;100835.69;5097104;28;20040;-75
2022/04/30 03:29:18;;;;;;;11.30;7.38;;;;;;;8.75;95.20;100837.13;5078564;28;20087;-76
2022/04/30 03:31:49;;;;;;;14.68;7.72;;;;;;;8.84;94.58;100836.75;5078741;28;20486;-75
2022/04/30 03:34:19;;;;;;;11.85;7.10;;;;;;;8.78;94.35;100847.63;5096976;28;20431;-76
2022/04/30 03:36:47;;;;;;;13.48;7.50;;;;;;;8.86;94.04;100842.84;5096439;28;20109;-76
2022/04/30 03:39:15;;;;;;;9.93;7.03;;;;;;;9.01;91.73;100846.66;5096941;28;20112;-76
2022/04/30 03:41:44;;;;;;;11.05;6.97;;;;;;;9.01;91.04;100844.84;5078238;28;20044;-76
2022/04/30 03:44:12;;;;;;;13.25;7.35;;;;;;;8.95;91.06;100837.13;5096543;28;20075;-76
2022/04/30 03:46:40;;;;;;;12.02;7.50;;;;;;;8.92;90.87;100844.41;5095030;28;20056;-76
2022/04/30 03:49:08;;;;;;;10.98;7.22;;;;;;;9.01;89.96;100839.53;5096687;28;20134;-76
2022/04/30 03:51:38;;;;;;;10.65;6.97;;;;;;;9.09;89.27;100839.19;5078319;28;20056;-76
2022/04/30 03:54:06;;;;;;;12.82;7.57;;;;;;;9.14;88.01;100835.38;5078371;28;20055;-76
2022/04/30 03:56:34;;;;;;;13.02;7.43;;;;;;;9.05;88.63;100843.78;5096254;28;20093;-76
2022/04/30 03:59:03;;;;;;;9.95;6.75;;;;;;;9.21;87.57;100851.09;5096071;28;20131;-76
2022/04/30 04:01:35;;;;;;;12.15;7.10;;;;;;;9.21;87.07;100845.75;5077899;28;20048;-77
2022/04/30 04:04:04;;;;;;;11.88;7.05;;;;;;;9.44;84.60;100848.22;5078480;28;20447;-76
2022/04/30 04:06:32;;;;;;;10.25;6.05;;;;;;;9.76;81.32;100849.41;5095980;28;20119;-76
2022/04/30 04:09:02;;;;;;;13.57;7.20;;;;;;;9.96;80.38;100845.78;5095813;28;20109;-75
2022/04/30 04:11:31;;;;;;;10.05;6.30;;;;;;;10.06;78.75;100848.88;5096013;28;20097;-83
2022/04/30 04:19:30;;;;;;;11.32;6.78;;;;;;;10.67;74.03;100843.19;5094707;28;20040;-76
2022/04/30 04:21:59;;;;;;;11.52;6.45;;;;;;;10.58;75.15;100848.03;5095556;28;20123;-76
2022/04/30 04:27:17;;;;;;;12.15;7.00;;;;;;;11.37;69.84;100850.13;5095835;28;20044;-73
2022/04/30 04:29:47;;;;;;;11.20;6.35;;;;;;;11.69;68.97;100849.25;5077507;28;20093;-74
2022/04/30 04:32:15;;;;;;;11.80;6.65;;;;;;;12.10;65.98;100861.28;5095724;28;20075;-74
2022/04/30 04:34:43;;;;;;;13.18;6.22;;;;;;;12.11;66.40;100857.66;5077323;28;20052;-73
2022/04/30 04:37:17;;;;;;;10.13;5.95;;;;;;;12.45;64.06;100852.09;5095587;28;20469;-74
2022/04/30 04:39:46;;;;;;;9.18;6.22;;;;;;;12.88;62.82;100849.53;5076998;28;20043;-74
2022/04/30 04:42:15;;;;;;;13.05;6.50;;;;;;;12.47;62.93;100854.69;5077339;28;20044;-74
2022/04/30 04:44:43;;;;;;;8.98;6.25;;;;;;;12.52;63.09;100852.59;5095179;28;20097;-74
2022/04/30 04:47:12;;;;;;;11.35;6.07;;;;;;;12.77;62.45;100857.38;5095389;28;20105;-74
2022/04/30 04:49:41;;;;;;;14.15;7.40;;;;;;;12.42;63.65;100851.41;5095218;28;20043;-74
2022/04/30 04:52:10;;;;;;;10.25;7.07;;;;;;;12.37;63.96;100854.34;5095082;28;20094;-74
2022/04/30 04:54:38;;;;;;;11.77;6.35;;;;;;;12.21;64.14;100854.38;5076956;28;20485;-74
2022/04/30 04:57:08;;;;;;;9.93;6.32;;;;;;;12.21;64.49;100848.16;5095094;28;20048;-74
2022/04/30 04:59:36;;;;;;;14.45;7.53;;;;;;;12.17;65.18;100863.53;5094810;28;20040;-76
2022/04/30 05:02:05;;;;;;;9.90;6.90;;;;;;;12.17;65.22;100863.53;5076972;28;20565;-75
2022/04/30 05:04:34;;;;;;;10.90;6.68;;;;;;;12.31;64.20;100855.56;5076909;28;20051;-75
2022/04/30 05:07:02;;;;;;;11.68;6.70;;;;;;;12.15;64.28;100862.72;5076654;28;20047;-76
2022/04/30 05:09:31;;;;;;;10.40;6.70;;;;;;;12.53;63.55;100860.53;5076687;28;20105;-75
2022/04/30 05:12:01;;;;;;;11.75;7.22;;;;;;;12.28;64.31;100861.09;5076434;28;20078;-75
2022/04/30 05:14:32;;;;;;;9.93;6.93;;;;;;;12.85;62.56;100855.97;5076401;28;20060;-75
2022/04/30 05:17:01;;;;;;;10.60;6.78;;;;;;;13.04;62.31;100855.72;5094571;28;20044;-75
2022/04/30 05:19:33;;;;;;;12.77;6.95;;;;;;;13.19;61.88;100859.28;5094452;28;20439;-77
2022/04/30 05:22:01;;;;;;;11.38;7.55;;;;;;;13.72;59.19;100850.56;5094526;28;20054;-78
2022/04/30 05:24:29;;;;;;;10.88;6.90;;;;;;;14.35;57.95;100848.28;5076566;28;20139;-78
2022/04/30 05:26:58;;;;;;;9.82;7.10;;;;;;;14.66;55.95;100850.66;5094072;28;20089;-78
2022/04/30 05:29:26;;;;;;;9.75;6.85;;;;;;;15.07;54.07;100857.75;5075849;28;20413;-78
2022/04/30 05:31:55;;;;;;;13.85;7.20;;;;;;;15.48;52.30;100860.22;5075680;28;20059;-78
2022/04/30 05:34:24;;;;;;;11.18;7.28;;;;;;;15.76;51.56;100863.66;5094372;28;20452;-78
2022/04/30 05:36:52;;;;;;;10.65;7.10;;;;;;;16.50;49.08;100860.81;5075898;28;20404;-78
2022/04/30 05:39:20;;;;;;;9.77;6.97;;;;;;;16.83;47.89;100859.25;5075870;28;20047;-78
2022/04/30 05:41:48;;;;;;;9.80;7.05;;;;;;;17.03;47.40;100858.56;5093977;28;20044;-75
2022/04/30 05:44:16;;;;;;;16.00;6.97;;;;;;;17.61;46.05;100859.38;5075738;28;20094;-76
2022/04/30 05:46:45;;;;;;;11.45;6.75;;;;;;;17.51;46.06;100855.69;5093573;28;20052;-75
2022/04/30 05:49:14;;;;;;;11.57;7.25;;;;;;;17.92;44.90;100848.84;5075744;28;20056;-75
2022/04/30 05:51:43;;;;;;;11.50;7.28;;;;;;;18.03;44.81;100859.59;5093572;28;20138;-75
2022/04/30 05:54:11;;;;;;;10.18;6.90;;;;;;;18.19;43.82;100860.06;5093798;28;20112;-75
2022/04/30 05:56:40;;;;;;;11.75;7.18;;;;;;;18.47;43.20;100846.97;5075823;28;20051;-79
2022/04/30 05:59:08;;;;;;;10.73;7.22;;;;;;;18.37;42.89;100863.09;5075555;28;20135;-77
2022/04/30 06:01:36;;;;;;;10.25;7.10;;;;;;;18.68;41.76;100850.59;5093362;28;20044;-76
2022/04/30 06:04:05;;;;;;;9.40;6.80;;;;;;;18.68;42.22;100856.00;5093806;28;20048;-76
2022/04/30 06:06:35;;;;;;;10.18;7.13;;;;;;;19.05;41.41;100852.88;5093433;28;20044;-75
2022/04/30 06:09:03;;;;;;;11.45;7.07;;;;;;;18.53;42.42;100852.75;5074893;28;20051;-76
2022/04/30 06:11:32;;;;;;;11.00;7.03;;;;;;;18.10;43.20;100855.44;5093588;28;20055;-77
2022/04/30 06:14:00;;;;;;;11.52;6.45;;;;;;;18.23;43.22;100858.81;5075244;28;20055;-78
2022/04/30 06:16:28;;;;;;;10.00;6.72;;;;;;;18.44;42.97;100847.25;5075176;28;20066;-77
2022/04/30 06:18:56;;;;;;;9.18;7.13;;;;;;;18.62;42.22;100848.38;5093278;28;20571;-78
2022/04/30 06:21:43;;;;;;;9.95;7.38;;;;;;;18.36;42.57;100850.59;5075578;28;20122;-77
2022/04/30 06:24:11;;;;;;;13.02;6.68;;;;;;;18.62;41.73;100851.06;5075539;28;20098;-77
2022/04/30 06:26:39;;;;;;;11.05;6.45;;;;;;;18.55;42.05;100844.50;5075176;28;20055;-75
2022/04/30 06:29:09;;;;;;;12.85;6.68;;;;;;;18.64;41.80;100848.28;5079779;28;20127;-71
2022/04/30 06:31:38;;;;;;;9.52;7.20;;;;;;;19.02;41.52;100853.16;5075248;28;20083;-77
2022/04/30 06:34:06;;;;;;;13.18;7.38;;;;;;;19.01;41.34;100848.69;5075009;28;20051;-77
2022/04/30 06:36:34;;;;;;;9.65;6.47;;;;;;;18.93;41.26;100853.94;5075406;28;20052;-77
2022/04/30 06:39:04;;;;;;;10.70;6.85;;;;;;;19.40;40.77;100847.13;5092636;28;20101;-77
2022/04/30 06:41:32;;;;;;;9.27;6.68;;;;;;;20.42;37.90;100840.59;5073934;28;20505;-76
2022/04/30 06:44:01;;;;;;;12.38;6.75;;;;;;;20.56;38.06;100845.63;5092495;28;20097;-77
2022/04/30 06:46:29;;;;;;;10.18;6.32;;;;;;;20.47;38.50;100838.34;5093128;28;20036;-77
2022/04/30 06:48:58;;;;;;;9.02;6.05;;;;;;;20.76;38.04;100832.94;5074818;28;20226;-76
2022/04/30 06:51:28;;;;;;;9.88;6.18;;;;;;;20.56;38.34;100842.94;5075053;28;20048;-77
2022/04/30 06:59:31;;;;;;;10.57;6.53;;;;;;;19.12;41.64;100832.44;5074943;28;20052;-76
2022/04/30 07:02:01;;;;;;;10.00;6.53;;;;;;;18.96;43.09;100842.84;5074543;28;20128;-76
2022/04/30 07:04:30;;;;;;;11.52;6.38;;;;;;;18.72;43.68;100841.28;5074829;28;20044;-76
2022/04/30 07:06:59;;;;;;;9.88;6.43;;;;;;;18.79;43.62;100837.03;5092564;28;20040;-76
2022/04/30 07:09:28;;;;;;;9.65;5.95;;;;;;;19.16;42.88;100836.56;5074907;28;20126;-73
2022/04/30 07:11:58;;;;;;;9.40;6.32;;;;;;;19.12;43.67;100838.69;5092738;28;20052;-74
2022/04/30 07:14:26;;;;;;;8.45;5.72;;;;;;;19.34;40.68;100836.81;5074575;28;20392;-73
2022/04/30 07:16:54;;;;;;;7.63;5.20;;;;;;;19.31;39.39;100829.84;5092753;28;20070;-75
2022/04/30 07:19:23;;;;;;;8.70;4.85;;;;;;;19.33;38.91;100832.41;5079907;28;20048;-75
2022/04/30 07:21:51;;;;;;;7.55;4.65;;;;;;;19.05;39.75;100825.84;5074597;28;20080;-76
2022/04/30 07:24:19;;;;;;;9.13;4.90;;;;;;;18.64;39.83;100832.91;5074352;28;20046;-74
2022/04/30 07:26:49;;;;;;;6.57;4.20;;;;;;;18.78;40.64;100829.91;5074270;28;20140;-75
2022/04/30 07:29:26;;;;;;;6.28;4.63;;;;;;;19.01;40.71;100829.78;5075323;28;20076;-73
2022/04/30 07:31:55;;;;;;;7.03;4.35;;;;;;;18.71;39.52;100823.31;5081891;28;20078;-74
2022/04/30 07:34:27;;;;;;;7.95;4.50;;;;;;;18.50;40.08;100825.09;5080447;28;20056;-73
2022/04/30 07:36:55;;;;;;;8.63;4.70;;;;;;;18.23;40.69;100812.91;5074236;28;20058;-73
2022/04/30 07:39:24;;;;;;;7.45;4.43;;;;;;;18.30;40.87;100822.22;5074135;28;20076;-73
2022/04/30 07:41:53;;;;;;;8.13;4.70;;;;;;;18.60;40.31;100821.50;5074358;28;20485;-73
2022/04/30 07:44:22;;;;;;;5.88;4.30;;;;;;;18.48;40.58;100821.69;5074668;28;20519;-73
2022/04/30 07:46:52;;;;;;;9.63;4.95;;;;;;;18.45;39.96;100816.53;5074458;28;20067;-74
2022/04/30 07:49:20;;;;;;;14.52;5.10;;;;;;;18.60;41.97;100817.94;5102853;28;20035;-78
2022/04/30 07:51:55;;;;;;;7.00;4.50;;;;;;;18.73;39.76;100815.94;5094134;28;20508;-79
2022/04/30 07:54:24;;;;;;;8.55;4.70;;;;;;;18.70;40.29;100818.91;5098224;28;20055;-74
2022/04/30 07:56:54;;;;;;;8.15;4.90;;;;;;;18.51;39.99;100816.88;5116176;28;20048;-76
2022/04/30 07:59:22;;;;;;;6.90;4.30;;;;;;;18.59;40.58;100818.94;5098425;28;20097;-75
2022/04/30 08:01:52;;;;;;;9.63;4.75;;;;;;;18.68;40.09;100818.19;5097860;28;20122;-76
2022/04/30 08:04:21;;;;;;;6.78;4.70;;;;;;;18.67;40.49;100813.75;5098090;28;20043;-75
2022/04/30 08:06:49;;;;;;;7.63;4.47;;;;;;;18.62;40.03;100817.78;5097959;28;20130;-79
2022/04/30 08:09:17;;;;;;;10.20;4.95;;;;;;;18.78;41.09;100812.84;5116826;28;20043;-75
2022/04/30 08:11:46;;;;;;;8.60;4.85;;;;;;;18.94;40.28;100813.25;5116453;28;20050;-75
2022/04/30 08:14:15;;;;;;;6.78;4.35;;;;;;;19.02;40.48;100815.28;5116311;28;20392;-78
2022/04/30 08:16:43;;;;;;;8.43;4.88;;;;;;;19.09;40.44;100814.59;5097756;28;20557;-76
2022/04/30 08:19:14;;;;;;;7.03;4.57;;;;;;;19.40;39.41;100818.22;5097651;28;20049;-77
2022/04/30 08:21:43;;;;;;;6.57;4.43;;;;;;;19.15;39.70;100821.34;5097900;28;20051;-77
2022/04/30 08:24:31;;;;;;;8.93;4.97;;;;;;;19.23;39.54;100820.69;5097985;28;20438;-79
2022/04/30 08:27:00;;;;;;;6.28;4.30;;;;;;;19.24;38.11;100817.84;5097126;28;20047;-79
2022/04/30 08:29:29;;;;;;;6.82;4.05;;;;;;;19.23;38.80;100816.13;5115797;28;20038;-74
2022/04/30 08:31:58;;;;;;;6.97;4.05;;;;;;;19.37;37.68;100815.75;5097322;28;20051;-75
2022/04/30 08:34:27;;;;;;;7.20;4.10;;;;;;;19.31;37.73;100819.03;5115354;28;20481;-74
2022/04/30 08:36:55;;;;;;;6.72;4.07;;;;;;;19.49;38.20;100823.78;5097249;28;20046;-75
2022/04/30 08:39:24;;;;;;;5.82;4.22;;;;;;;19.44;38.32;100816.06;5115474;28;20036;-75
2022/04/30 08:41:52;;;;;;;7.28;4.28;;;;;;;19.49;38.06;100818.38;5115180;28;20036;-77
2022/04/30 08:44:20;;;;;;;7.93;4.20;;;;;;;19.57;38.64;100818.56;5093855;28;20101;-75
2022/04/30 08:46:51;;;;;;;7.13;4.18;;;;;;;19.67;37.96;100811.34;5095591;28;20044;-74
2022/04/30 08:49:21;;;;;;;5.88;3.95;;;;;;;19.79;38.25;100812.13;5095358;28;20051;-72
2022/04/30 08:51:50;;;;;;;8.20;4.07;;;;;;;19.86;37.01;100805.13;5095120;28;20071;-70
2022/04/30 08:54:18;;;;;;;5.88;3.67;;;;;;;19.91;36.03;100809.16;5077077;28;20048;-71
2022/04/30 08:56:54;;;;;;;6.90;4.47;;;;;;;19.89;36.14;100800.31;5076441;28;20151;-71
2022/04/30 08:59:23;;;;;;;7.55;4.03;;;;;;;19.96;36.48;100806.88;5094374;27;20516;-72
2022/04/30 09:01:54;;;;;;;6.20;3.80;;;;;;;19.75;37.63;100802.56;5076463;28;20076;-72
2022/04/30 09:04:22;;;;;;;8.27;4.60;;;;;;;19.74;36.90;100801.69;5076025;28;20098;-73
2022/04/30 09:06:55;;;;;;;6.15;3.53;;;;;;;19.82;36.33;100796.44;5094992;28;20036;-72
2022/04/30 09:09:25;;;;;;;5.82;3.67;;;;;;;20.09;36.20;100795.81;5076528;28;20051;-72
2022/04/30 09:11:56;;;;;;;7.38;4.20;;;;;;;20.08;36.39;100790.53;5076985;28;20060;-72
2022/04/30 09:14:25;;;;;;;8.68;4.60;;;;;;;20.28;36.79;100784.97;5076800;28;20147;-72
2022/04/30 09:17:05;;;;;;;6.57;4.68;;;;;;;20.29;36.02;100783.13;5076964;28;20102;-79
2022/04/30 09:19:35;;;;;;;6.32;4.00;;;;;;;20.08;35.13;100780.56;5094482;28;20060;-71
2022/04/30 09:22:05;;;;;;;7.68;3.92;;;;;;;20.14;35.51;100776.41;5076317;28;20087;-72
2022/04/30 09:24:45;;;;;;;6.25;4.05;;;;;;;20.24;35.44;100766.44;5094616;28;20093;-72
2022/04/30 09:27:33;;;;;;;8.27;4.53;;;;;;;20.35;36.13;100769.00;5094725;28;20054;-71
2022/04/30 09:30:02;;;;;;;6.80;4.00;;;;;;;20.27;36.89;100760.75;5076103;28;20420;-71
2022/04/30 09:32:30;;;;;;;6.50;4.43;;;;;;;20.42;36.47;100761.16;5094105;28;20036;-71
2022/04/30 09:37:48;;;;;;;6.90;4.50;;;;;;;20.72;34.87;100752.88;5094234;28;20400;-72
2022/04/30 09:40:22;;;;;;;6.25;4.32;;;;;;;20.90;33.58;100750.28;5075938;28;20079;-72
2022/04/30 09:42:51;;;;;;;8.43;4.15;;;;;;;20.93;33.73;100744.56;5094020;28;20044;-72
2022/04/30 09:45:25;;;;;;;6.40;4.10;;;;;;;21.09;33.23;100747.50;5075719;28;20070;-72
2022/04/30 09:47:54;;;;;;;6.10;4.20;;;;;;;21.24;32.02;100744.34;5076078;28;20105;-73
2022/04/30 09:56:05;;;;;;;7.60;4.03;;;;;;;21.27;31.81;100736.78;5075799;28;20044;-71
2022/04/30 09:58:42;;;;;;;6.05;4.13;;;;;;;21.25;31.90;100733.31;5094009;28;20044;-70
2022/04/30 10:01:13;;;;;;;7.55;4.05;;;;;;;21.35;32.17;100731.44;5075413;28;20121;-72
2022/04/30 10:03:43;;;;;;;5.80;3.88;;;;;;;21.41;31.58;100727.25;5093784;28;20112;-73
2022/04/30 10:06:13;;;;;;;6.20;4.28;;;;;;;21.26;31.98;100726.03;5075390;28;20048;-72
2022/04/30 10:08:46;;;;;;;9.43;4.72;;;;;;;21.20;31.62;100721.19;5075881;28;20048;-72
2022/04/30 10:11:34;;;;;;;5.35;3.72;;;;;;;21.25;31.99;100718.91;5075453;28;20082;-73
2022/04/30 10:14:15;;;;;;;8.07;4.18;;;;;;;21.19;33.14;100714.91;5093726;28;20101;-73
2022/04/30 10:17:07;;;;;;;5.82;4.00;;;;;;;21.51;30.88;100708.22;5074885;28;20054;-73
2022/04/30 10:19:37;;;;;;;5.63;3.85;;;;;;;21.74;30.75;100700.53;5074995;28;20135;-72
2022/04/30 10:22:14;;;;;;;7.05;4.10;;;;;;;21.41;30.21;100708.28;5075296;28;20056;-72
2022/04/30 10:24:48;;;;;;;5.38;3.80;;;;;;;21.38;29.88;100708.59;5093366;28;20039;-73
2022/04/30 10:27:18;;;;;;;6.80;4.05;;;;;;;21.20;30.13;100696.78;5093415;28;20040;-73
2022/04/30 10:29:54;;;;;;;5.97;3.65;;;;;;;21.25;30.79;100706.19;5093665;28;20374;-73
2022/04/30 10:32:32;;;;;;;9.70;4.20;;;;;;;21.07;30.79;100700.69;5093257;28;20048;-72
2022/04/30 10:35:03;;;;;;;8.30;3.83;;;;;;;21.10;29.29;100700.41;5093253;28;20044;-80
2022/04/30 10:37:34;;;;;;;5.32;3.85;;;;;;;21.12;29.61;100700.25;5075368;28;20044;-71
2022/04/30 10:40:06;;;;;;;6.10;3.45;;;;;;;20.68;29.75;100696.41;5093167;28;20044;-73
2022/04/30 10:42:43;;;;;;;6.10;3.92;;;;;;;20.74;30.33;100698.50;5075621;28;20040;-72
2022/04/30 10:45:15;;;;;;;8.40;4.53;;;;;;;20.99;30.83;100687.03;5075056;28;20498;-72
2022/04/30 10:47:52;;;;;;;8.85;4.38;;;;;;;21.09;30.33;100693.25;5075239;28;20488;-72
2022/04/30 10:50:22;;;;;;;6.43;4.03;;;;;;;21.24;29.47;100687.34;5093619;28;20369;-72
2022/04/30 10:52:54;;;;;;;7.18;3.78;;;;;;;21.49;29.78;100694.81;5075146;28;20056;-72
2022/04/30 10:55:28;;;;;;;7.20;4.05;;;;;;;21.40;28.54;100680.28;5075075;28;20048;-73
2022/04/30 10:57:56;;;;;;;5.30;3.53;;;;;;;21.34;28.43;100682.78;5074969;28;20488;-72
2022/04/30 11:00:26;;;;;;;5.45;3.58;;;;;;;21.12;28.53;100676.69;5075442;28;20048;-72
2022/04/30 11:02:54;;;;;;;8.27;3.70;;;;;;;21.42;28.77;100678.28;5093172;28;20105;-72
2022/04/30 11:05:23;;;;;;;6.28;3.80;;;;;;;21.55;28.69;100671.63;5074761;28;20492;-72
2022/04/30 11:07:52;;;;;;;7.55;3.72;;;;;;;21.67;28.34;100673.97;5074758;28;20071;-72
2022/04/30 11:10:21;;;;;;;6.80;4.00;;;;;;;21.84;27.52;100676.88;5074768;28;20113;-72
2022/04/30 11:13:01;;;;;;;6.78;3.88;;;;;;;21.78;27.73;100674.75;5075192;28;20044;-72
2022/04/30 11:15:29;;;;;;;5.90;3.55;;;;;;;21.90;27.16;100668.06;5093446;28;20074;-72
2022/04/30 11:18:00;;;;;;;7.70;4.00;;;;;;;21.83;27.54;100670.59;5075212;28;20051;-72
2022/04/30 11:20:29;;;;;;;4.90;3.30;;;;;;;21.85;27.31;100665.84;5092998;28;20043;-72
2022/04/30 11:23:00;;;;;;;6.50;3.70;;;;;;;22.07;28.29;100663.69;5093032;28;20036;-72
2022/04/30 11:25:36;;;;;;;8.85;4.07;;;;;;;22.12;27.52;100664.09;5092841;28;20064;-72
2022/04/30 11:28:08;;;;;;;6.90;3.80;;;;;;;22.15;26.76;100664.63;5076651;28;20089;-73
2022/04/30 11:30:38;;;;;;;7.93;3.80;;;;;;;22.10;27.50;100653.38;5078723;28;20047;-72
2022/04/30 11:33:07;;;;;;;5.85;3.60;;;;;;;22.17;28.27;100645.44;5096710;28;20040;-75
2022/04/30 11:35:35;;;;;;;6.43;3.78;;;;;;;21.47;29.58;100649.84;5078753;28;20135;-72
2022/04/30 11:38:04;;;;;;;5.75;3.70;;;;;;;21.28;29.73;100648.09;5078479;28;20044;-71
2022/04/30 11:40:33;;;;;;;8.30;4.05;;;;;;;21.04;30.53;100652.19;5078693;28;20483;-72
2022/04/30 11:43:02;;;;;;;6.55;4.00;;;;;;;20.89;29.21;100650.97;5078226;28;20051;-71
2022/04/30 11:45:33;;;;;;;6.25;3.90;;;;;;;21.02;30.13;100648.75;5077979;28;20044;-72
2022/04/30 11:48:03;;;;;;;5.63;3.90;;;;;;;20.83;29.71;100636.13;5078072;28;20052;-72
2022/04/30 11:50:32;;;;;;;6.32;3.65;;;;;;;20.76;30.69;100636.91;5077861;28;20135;-72
2022/04/30 11:53:01;;;;;;;6.68;3.60;;;;;;;20.44;30.61;100637.25;5077768;28;20481;-71
2022/04/30 11:55:30;;;;;;;7.25;4.15;;;;;;;20.47;30.78;100637.84;5095448;28;20117;-72
2022/04/30 11:58:04;;;;;;;7.43;3.88;;;;;;;20.43;30.83;100627.44;5096005;28;20048;-72
2022/04/30 12:00:54;;;;;;;5.72;3.65;;;;;;;20.26;30.83;100634.41;5078187;28;20067;-72
2022/04/30 12:03:26;;;;;;;7.35;3.90;;;;;;;20.25;31.10;100630.00;5077755;28;20123;-72
2022/04/30 12:05:56;;;;;;;6.20;3.80;;;;;;;20.47;31.20;100627.00;5096121;28;20048;-72
2022/04/30 12:08:28;;;;;;;6.75;3.75;;;;;;;20.56;30.82;100620.72;5095413;28;20067;-73
2022/04/30 12:10:57;;;;;;;10.70;4.10;;;;;;;20.61;30.57;100612.13;5077579;28;20481;-73